sensor_id;sensor_type;location;lat;lon;timestamp;P1;P2;P0
55441;PMS5003;41313;58.740;50.174;2022-07-21T00:02:03;32.33;32.33;20.67
55441;PMS5003;41313;58.740;50.174;2022-07-21T00:07:05;34.33;34.33;22.00
55441;PMS5003;41313;58.740;50.174;2022-07-21T00:12:07;20.00;20.00;13.33
55441;PMS5003;41313;58.740;50.174;2022-07-21T00:17:09;20.33;20.33;14.33
55441;PMS5003;41313;58.740;50.174;2022-07-21T00:22:10;26.33;26.33;17.00
55441;PMS5003;41313;58.740;50.174;2022-07-21T00:27:12;29.67;29.67;18.00
55441;PMS5003;41313;58.740;50.174;2022-07-21T00:32:13;29.00;26.67;16.00
55441;PMS5003;41313;58.740;50.174;2022-07-21T00:37:15;31.33;29.67;18.67
55441;PMS5003;41313;58.740;50.174;2022-07-21T00:42:23;29.00;28.00;18.33
55441;PMS5003;41313;58.740;50.174;2022-07-21T00:47:27;96.67;72.33;36.67
55441;PMS5003;41313;58.740;50.174;2022-07-21T00:52:31;15.33;15.33;10.33
55441;PMS5003;41313;58.740;50.174;2022-07-21T00:57:32;28.67;27.00;16.67
55441;PMS5003;41313;58.740;50.174;2022-07-21T01:02:34;16.00;16.00;11.25
55441;PMS5003;41313;58.740;50.174;2022-07-21T01:07:39;22.33;22.33;14.00
55441;PMS5003;41313;58.740;50.174;2022-07-21T01:12:43;24.33;24.33;15.67
55441;PMS5003;41313;58.740;50.174;2022-07-21T01:17:45;39.00;34.00;17.67
55441;PMS5003;41313;58.740;50.174;2022-07-21T01:22:49;22.67;22.33;14.67
55441;PMS5003;41313;58.740;50.174;2022-07-21T01:27:53;8.67;8.67;5.67
55441;PMS5003;41313;58.740;50.174;2022-07-21T01:32:54;15.25;15.25;10.50
55441;PMS5003;41313;58.740;50.174;2022-07-21T01:37:56;8.50;8.50;6.50
55441;PMS5003;41313;58.740;50.174;2022-07-21T01:43:00;14.75;14.75;11.25
55441;PMS5003;41313;58.740;50.174;2022-07-21T01:48:01;21.33;21.33;13.00
55441;PMS5003;41313;58.740;50.174;2022-07-21T01:53:03;58.33;42.33;21.33
55441;PMS5003;41313;58.740;50.174;2022-07-21T01:58:05;33.33;31.00;17.67
55441;PMS5003;41313;58.740;50.174;2022-07-21T02:03:07;42.67;38.33;23.67
55441;PMS5003;41313;58.740;50.174;2022-07-21T02:08:17;40.67;37.00;20.00
55441;PMS5003;41313;58.740;50.174;2022-07-21T02:13:19;49.67;42.33;23.33
55441;PMS5003;41313;58.740;50.174;2022-07-21T02:18:40;69.00;54.33;29.67
55441;PMS5003;41313;58.740;50.174;2022-07-21T02:23:42;50.67;41.67;24.00
55441;PMS5003;41313;58.740;50.174;2022-07-21T02:28:44;66.00;48.33;26.33
55441;PMS5003;41313;58.740;50.174;2022-07-21T02:33:46;58.67;49.00;26.67
55441;PMS5003;41313;58.740;50.174;2022-07-21T02:38:47;16.50;15.75;6.00
55441;PMS5003;41313;58.740;50.174;2022-07-21T02:43:50;20.00;20.00;12.50
55441;PMS5003;41313;58.740;50.174;2022-07-21T02:48:51;14.75;14.00;8.25
55441;PMS5003;41313;58.740;50.174;2022-07-21T02:53:53;25.50;24.00;15.00
55441;PMS5003;41313;58.740;50.174;2022-07-21T02:58:54;134.75;120.50;55.25
55441;PMS5003;41313;58.740;50.174;2022-07-21T03:03:56;223.25;180.50;77.00
55441;PMS5003;41313;58.740;50.174;2022-07-21T03:08:57;230.75;185.75;82.50
55441;PMS5003;41313;58.740;50.174;2022-07-21T03:13:58;91.33;71.00;40.33
55441;PMS5003;41313;58.740;50.174;2022-07-21T03:19:00;51.33;45.00;25.67
55441;PMS5003;41313;58.740;50.174;2022-07-21T03:24:01;49.67;43.00;23.00
55441;PMS5003;41313;58.740;50.174;2022-07-21T03:29:03;75.33;59.67;34.33
55441;PMS5003;41313;58.740;50.174;2022-07-21T03:34:05;53.00;45.67;27.00
55441;PMS5003;41313;58.740;50.174;2022-07-21T03:39:07;32.33;31.33;10.67
55441;PMS5003;41313;58.740;50.174;2022-07-21T03:44:08;39.00;37.33;22.33
55441;PMS5003;41313;58.740;50.174;2022-07-21T03:49:09;38.33;38.00;22.33
55441;PMS5003;41313;58.740;50.174;2022-07-21T03:54:11;31.25;30.75;16.00
55441;PMS5003;41313;58.740;50.174;2022-07-21T03:59:12;39.67;37.00;26.33
55441;PMS5003;41313;58.740;50.174;2022-07-21T04:04:13;12.50;12.50;8.50
55441;PMS5003;41313;58.740;50.174;2022-07-21T04:09:15;20.75;19.50;14.75
55441;PMS5003;41313;58.740;50.174;2022-07-21T04:14:18;15.50;15.50;11.50
55441;PMS5003;41313;58.740;50.174;2022-07-21T04:19:19;40.00;38.67;27.00
55441;PMS5003;41313;58.740;50.174;2022-07-21T04:24:21;52.00;46.33;30.00
55441;PMS5003;41313;58.740;50.174;2022-07-21T04:29:22;14.00;14.00;9.25
55441;PMS5003;41313;58.740;50.174;2022-07-21T04:34:24;12.75;12.75;8.75
55441;PMS5003;41313;58.740;50.174;2022-07-21T04:39:26;14.25;14.25;9.25
55441;PMS5003;41313;58.740;50.174;2022-07-21T04:44:28;12.25;12.25;9.25
55441;PMS5003;41313;58.740;50.174;2022-07-21T04:49:30;9.75;9.75;6.25
55441;PMS5003;41313;58.740;50.174;2022-07-21T04:54:31;10.50;10.50;8.25
55441;PMS5003;41313;58.740;50.174;2022-07-21T04:59:33;11.00;11.00;7.75
55441;PMS5003;41313;58.740;50.174;2022-07-21T05:04:35;22.00;22.00;17.75
55441;PMS5003;41313;58.740;50.174;2022-07-21T05:09:37;9.00;9.00;6.00
55441;PMS5003;41313;58.740;50.174;2022-07-21T05:14:38;9.00;9.00;6.25
55441;PMS5003;41313;58.740;50.174;2022-07-21T05:19:39;76.33;62.00;37.33
55441;PMS5003;41313;58.740;50.174;2022-07-21T05:24:43;10.00;10.00;7.75
55441;PMS5003;41313;58.740;50.174;2022-07-21T05:29:45;9.50;9.50;7.00
55441;PMS5003;41313;58.740;50.174;2022-07-21T05:34:46;8.25;8.25;6.25
55441;PMS5003;41313;58.740;50.174;2022-07-21T05:39:48;7.50;7.50;6.25
55441;PMS5003;41313;58.740;50.174;2022-07-21T05:44:49;7.00;7.00;6.50
55441;PMS5003;41313;58.740;50.174;2022-07-21T05:49:51;7.00;7.00;5.50
55441;PMS5003;41313;58.740;50.174;2022-07-21T05:54:52;5.75;5.75;4.75
55441;PMS5003;41313;58.740;50.174;2022-07-21T05:59:54;6.50;6.50;5.50
55441;PMS5003;41313;58.740;50.174;2022-07-21T06:04:55;16.25;16.25;13.25
55441;PMS5003;41313;58.740;50.174;2022-07-21T06:09:56;7.00;7.00;5.25
55441;PMS5003;41313;58.740;50.174;2022-07-21T06:14:58;9.00;9.00;7.00
55441;PMS5003;41313;58.740;50.174;2022-07-21T06:19:59;9.00;9.00;6.00
55441;PMS5003;41313;58.740;50.174;2022-07-21T06:25:00;4.50;4.50;3.50
55441;PMS5003;41313;58.740;50.174;2022-07-21T06:30:04;6.00;6.00;5.00
55441;PMS5003;41313;58.740;50.174;2022-07-21T06:35:06;14.75;14.75;11.75
55441;PMS5003;41313;58.740;50.174;2022-07-21T06:40:08;11.50;11.50;9.75
55441;PMS5003;41313;58.740;50.174;2022-07-21T06:45:11;10.75;10.75;8.25
55441;PMS5003;41313;58.740;50.174;2022-07-21T06:50:13;9.50;9.50;8.00
55441;PMS5003;41313;58.740;50.174;2022-07-21T06:55:14;6.00;6.00;5.25
55441;PMS5003;41313;58.740;50.174;2022-07-21T07:00:16;5.00;5.00;4.00
55441;PMS5003;41313;58.740;50.174;2022-07-21T07:05:18;6.75;6.75;5.00
55441;PMS5003;41313;58.740;50.174;2022-07-21T07:10:20;3.75;3.75;3.00
55441;PMS5003;41313;58.740;50.174;2022-07-21T07:15:22;3.75;3.75;3.00
55441;PMS5003;41313;58.740;50.174;2022-07-21T07:20:24;3.75;3.75;3.25
55441;PMS5003;41313;58.740;50.174;2022-07-21T07:25:26;4.00;4.00;3.50
55441;PMS5003;41313;58.740;50.174;2022-07-21T07:30:27;6.25;6.25;5.00
55441;PMS5003;41313;58.740;50.174;2022-07-21T07:35:29;3.25;3.25;2.25
55441;PMS5003;41313;58.740;50.174;2022-07-21T07:40:31;5.75;5.75;4.00
55441;PMS5003;41313;58.740;50.174;2022-07-21T07:45:33;8.50;8.50;7.00
55441;PMS5003;41313;58.740;50.174;2022-07-21T07:50:35;4.00;4.00;3.50
55441;PMS5003;41313;58.740;50.174;2022-07-21T07:55:37;4.00;4.00;3.25
55441;PMS5003;41313;58.740;50.174;2022-07-21T08:00:38;2.50;2.50;2.00
55441;PMS5003;41313;58.740;50.174;2022-07-21T08:05:41;6.00;6.00;4.75
55441;PMS5003;41313;58.740;50.174;2022-07-21T08:10:43;5.00;5.00;4.00
55441;PMS5003;41313;58.740;50.174;2022-07-21T08:15:46;7.25;7.25;5.75
55441;PMS5003;41313;58.740;50.174;2022-07-21T08:20:49;2.00;2.00;2.00
55441;PMS5003;41313;58.740;50.174;2022-07-21T08:25:50;5.50;5.50;4.00
55441;PMS5003;41313;58.740;50.174;2022-07-21T08:30:52;4.50;4.50;4.50
55441;PMS5003;41313;58.740;50.174;2022-07-21T08:35:53;4.50;4.50;4.00
55441;PMS5003;41313;58.740;50.174;2022-07-21T08:40:55;4.00;4.00;3.50
55441;PMS5003;41313;58.740;50.174;2022-07-21T08:45:56;3.25;3.25;3.25
55441;PMS5003;41313;58.740;50.174;2022-07-21T08:50:58;2.75;2.75;2.50
55441;PMS5003;41313;58.740;50.174;2022-07-21T08:55:59;2.50;2.50;2.00
55441;PMS5003;41313;58.740;50.174;2022-07-21T09:01:01;3.00;3.00;3.00
55441;PMS5003;41313;58.740;50.174;2022-07-21T09:06:12;4.00;4.00;4.00
55441;PMS5003;41313;58.740;50.174;2022-07-21T09:11:20;17.50;17.50;12.25
55441;PMS5003;41313;58.740;50.174;2022-07-21T09:21:39;2.75;2.75;1.75
55441;PMS5003;41313;58.740;50.174;2022-07-21T09:32:18;2.50;2.50;2.00
55441;PMS5003;41313;58.740;50.174;2022-07-21T09:37:25;1.75;1.75;1.25
55441;PMS5003;41313;58.740;50.174;2022-07-21T09:42:28;2.75;2.75;2.00
55441;PMS5003;41313;58.740;50.174;2022-07-21T09:47:32;2.00;2.00;2.00
55441;PMS5003;41313;58.740;50.174;2022-07-21T09:52:36;6.25;6.25;5.50
55441;PMS5003;41313;58.740;50.174;2022-07-21T09:57:39;2.50;2.50;2.00
55441;PMS5003;41313;58.740;50.174;2022-07-21T10:02:42;3.50;3.50;3.50
55441;PMS5003;41313;58.740;50.174;2022-07-21T10:07:46;4.00;4.00;3.00
55441;PMS5003;41313;58.740;50.174;2022-07-21T10:12:49;3.00;3.00;2.25
55441;PMS5003;41313;58.740;50.174;2022-07-21T10:17:51;1.00;1.00;1.00
55441;PMS5003;41313;58.740;50.174;2022-07-21T10:28:23;1.00;1.00;1.00
55441;PMS5003;41313;58.740;50.174;2022-07-21T10:38:45;4.00;4.00;3.00
55441;PMS5003;41313;58.740;50.174;2022-07-21T10:43:46;2.00;2.00;2.00
55441;PMS5003;41313;58.740;50.174;2022-07-21T10:48:48;4.75;4.75;4.00
55441;PMS5003;41313;58.740;50.174;2022-07-21T10:54:15;4.00;4.00;3.50
55441;PMS5003;41313;58.740;50.174;2022-07-21T10:59:21;2.50;2.50;2.50
55441;PMS5003;41313;58.740;50.174;2022-07-21T11:04:22;2.75;2.75;2.25
55441;PMS5003;41313;58.740;50.174;2022-07-21T11:09:24;2.00;2.00;1.75
55441;PMS5003;41313;58.740;50.174;2022-07-21T11:14:35;11.75;11.75;9.25
55441;PMS5003;41313;58.740;50.174;2022-07-21T11:24:48;2.50;2.50;2.25
55441;PMS5003;41313;58.740;50.174;2022-07-21T11:29:51;3.75;3.75;3.00
55441;PMS5003;41313;58.740;50.174;2022-07-21T11:34:58;11.00;11.00;10.25
55441;PMS5003;41313;58.740;50.174;2022-07-21T11:40:02;1.75;1.75;1.00
55441;PMS5003;41313;58.740;50.174;2022-07-21T11:45:09;3.00;3.00;2.25
55441;PMS5003;41313;58.740;50.174;2022-07-21T11:50:12;10.50;10.50;8.50
55441;PMS5003;41313;58.740;50.174;2022-07-21T11:55:14;16.00;16.00;12.75
55441;PMS5003;41313;58.740;50.174;2022-07-21T12:00:16;2.50;2.50;2.25
55441;PMS5003;41313;58.740;50.174;2022-07-21T12:05:17;2.00;2.00;1.25
55441;PMS5003;41313;58.740;50.174;2022-07-21T12:10:24;3.25;3.25;2.75
55441;PMS5003;41313;58.740;50.174;2022-07-21T12:15:31;2.00;2.00;2.00
55441;PMS5003;41313;58.740;50.174;2022-07-21T12:25:42;2.50;2.50;2.50
55441;PMS5003;41313;58.740;50.174;2022-07-21T12:30:47;2.00;2.00;2.00
55441;PMS5003;41313;58.740;50.174;2022-07-21T12:41:02;2.00;2.00;2.00
55441;PMS5003;41313;58.740;50.174;2022-07-21T12:46:14;1.00;1.00;1.00
55441;PMS5003;41313;58.740;50.174;2022-07-21T12:56:21;3.50;3.50;3.50
55441;PMS5003;41313;58.740;50.174;2022-07-21T13:01:27;8.25;8.25;6.50
55441;PMS5003;41313;58.740;50.174;2022-07-21T13:06:31;5.00;5.00;4.00
55441;PMS5003;41313;58.740;50.174;2022-07-21T13:11:33;2.25;2.25;2.25
55441;PMS5003;41313;58.740;50.174;2022-07-21T13:16:35;10.25;10.25;7.00
55441;PMS5003;41313;58.740;50.174;2022-07-21T13:21:36;34.75;32.75;19.75
55441;PMS5003;41313;58.740;50.174;2022-07-21T13:26:38;3.50;3.50;3.00
55441;PMS5003;41313;58.740;50.174;2022-07-21T13:31:39;4.50;4.50;4.00
55441;PMS5003;41313;58.740;50.174;2022-07-21T13:36:41;61.00;49.67;28.67
55441;PMS5003;41313;58.740;50.174;2022-07-21T13:41:42;38.50;35.25;20.75
55441;PMS5003;41313;58.740;50.174;2022-07-21T13:46:44;2.00;2.00;1.25
55441;PMS5003;41313;58.740;50.174;2022-07-21T13:51:46;10.75;10.75;9.00
55441;PMS5003;41313;58.740;50.174;2022-07-21T13:56:47;9.50;9.50;9.00
55441;PMS5003;41313;58.740;50.174;2022-07-21T14:01:49;187.00;176.25;78.25
55441;PMS5003;41313;58.740;50.174;2022-07-21T14:06:50;12.75;12.75;9.25
55441;PMS5003;41313;58.740;50.174;2022-07-21T14:11:53;7.00;7.00;6.00
55441;PMS5003;41313;58.740;50.174;2022-07-21T14:16:56;4.50;4.50;3.75
55441;PMS5003;41313;58.740;50.174;2022-07-21T14:21:58;2.75;2.75;2.00
55441;PMS5003;41313;58.740;50.174;2022-07-21T14:27:00;7.00;7.00;5.50
55441;PMS5003;41313;58.740;50.174;2022-07-21T14:32:02;1.00;1.00;1.00
55441;PMS5003;41313;58.740;50.174;2022-07-21T14:37:04;2.50;2.50;2.00
55441;PMS5003;41313;58.740;50.174;2022-07-21T14:42:05;4.00;4.00;4.00
55441;PMS5003;41313;58.740;50.174;2022-07-21T14:47:07;1.00;1.00;0.25
55441;PMS5003;41313;58.740;50.174;2022-07-21T14:52:09;3.25;3.25;3.00
55441;PMS5003;41313;58.740;50.174;2022-07-21T14:57:10;6.75;6.75;5.00
55441;PMS5003;41313;58.740;50.174;2022-07-21T15:02:12;3.00;3.00;2.00
55441;PMS5003;41313;58.740;50.174;2022-07-21T15:07:13;6.00;6.00;4.25
55441;PMS5003;41313;58.740;50.174;2022-07-21T15:12:15;6.00;6.00;6.00
55441;PMS5003;41313;58.740;50.174;2022-07-21T15:17:16;3.75;3.75;2.75
55441;PMS5003;41313;58.740;50.174;2022-07-21T15:22:18;2.00;2.00;1.00
55441;PMS5003;41313;58.740;50.174;2022-07-21T15:27:19;5.00;5.00;5.00
55441;PMS5003;41313;58.740;50.174;2022-07-21T15:32:21;7.00;7.00;6.25
55441;PMS5003;41313;58.740;50.174;2022-07-21T15:37:23;6.50;6.50;6.00
55441;PMS5003;41313;58.740;50.174;2022-07-21T15:42:24;9.00;9.00;7.00
55441;PMS5003;41313;58.740;50.174;2022-07-21T15:47:26;17.50;17.50;12.00
55441;PMS5003;41313;58.740;50.174;2022-07-21T15:52:28;5.00;5.00;4.00
55441;PMS5003;41313;58.740;50.174;2022-07-21T15:57:30;4.00;4.00;3.00
55441;PMS5003;41313;58.740;50.174;2022-07-21T16:02:32;5.75;5.75;4.50
55441;PMS5003;41313;58.740;50.174;2022-07-21T16:07:34;4.50;4.50;4.00
55441;PMS5003;41313;58.740;50.174;2022-07-21T16:12:35;7.75;7.75;5.00
55441;PMS5003;41313;58.740;50.174;2022-07-21T16:17:37;34.25;32.25;17.25
55441;PMS5003;41313;58.740;50.174;2022-07-21T16:22:39;64.00;51.00;29.00
55441;PMS5003;41313;58.740;50.174;2022-07-21T16:27:45;40.75;34.75;20.50
55441;PMS5003;41313;58.740;50.174;2022-07-21T16:32:47;16.75;16.25;10.00
55441;PMS5003;41313;58.740;50.174;2022-07-21T16:37:49;19.50;19.50;10.75
55441;PMS5003;41313;58.740;50.174;2022-07-21T16:42:51;3.75;3.75;1.50
55441;PMS5003;41313;58.740;50.174;2022-07-21T16:47:53;27.50;27.50;17.50
55441;PMS5003;41313;58.740;50.174;2022-07-21T16:52:54;53.33;41.00;25.00
55441;PMS5003;41313;58.740;50.174;2022-07-21T16:57:57;24.00;23.75;14.00
55441;PMS5003;41313;58.740;50.174;2022-07-21T17:02:59;23.25;23.00;13.50
55441;PMS5003;41313;58.740;50.174;2022-07-21T17:08:00;61.33;48.00;26.00
55441;PMS5003;41313;58.740;50.174;2022-07-21T17:13:02;49.67;42.67;26.00
55441;PMS5003;41313;58.740;50.174;2022-07-21T17:18:03;26.00;26.00;15.25
55441;PMS5003;41313;58.740;50.174;2022-07-21T17:23:05;15.25;13.50;8.75
55441;PMS5003;41313;58.740;50.174;2022-07-21T17:28:06;16.75;16.75;12.25
55441;PMS5003;41313;58.740;50.174;2022-07-21T17:33:08;52.67;45.33;30.33
55441;PMS5003;41313;58.740;50.174;2022-07-21T17:38:09;56.67;48.00;30.00
55441;PMS5003;41313;58.740;50.174;2022-07-21T17:43:11;51.00;43.33;26.00
55441;PMS5003;41313;58.740;50.174;2022-07-21T17:48:12;25.75;25.75;15.50
55441;PMS5003;41313;58.740;50.174;2022-07-21T17:53:14;32.25;32.00;21.25
55441;PMS5003;41313;58.740;50.174;2022-07-21T17:58:15;45.00;38.33;24.00
55441;PMS5003;41313;58.740;50.174;2022-07-21T18:03:35;37.67;36.33;25.33
55441;PMS5003;41313;58.740;50.174;2022-07-21T18:08:37;54.00;45.33;29.67
55441;PMS5003;41313;58.740;50.174;2022-07-21T18:13:38;51.00;43.33;28.33
55441;PMS5003;41313;58.740;50.174;2022-07-21T18:18:40;39.00;36.33;23.67
55441;PMS5003;41313;58.740;50.174;2022-07-21T18:23:41;31.50;30.75;21.75
55441;PMS5003;41313;58.740;50.174;2022-07-21T18:28:43;20.00;20.00;12.25
55441;PMS5003;41313;58.740;50.174;2022-07-21T18:33:44;18.00;18.00;13.75
55441;PMS5003;41313;58.740;50.174;2022-07-21T18:38:45;32.25;32.25;21.25
55441;PMS5003;41313;58.740;50.174;2022-07-21T18:43:47;24.00;24.00;18.00
55441;PMS5003;41313;58.740;50.174;2022-07-21T18:48:48;28.75;28.75;19.75
55441;PMS5003;41313;58.740;50.174;2022-07-21T18:53:50;24.00;24.00;16.75
55441;PMS5003;41313;58.740;50.174;2022-07-21T18:58:52;18.25;18.25;10.50
55441;PMS5003;41313;58.740;50.174;2022-07-21T19:03:53;9.50;9.50;8.00
55441;PMS5003;41313;58.740;50.174;2022-07-21T19:08:55;9.25;9.25;7.50
55441;PMS5003;41313;58.740;50.174;2022-07-21T19:13:56;6.75;6.75;5.50
55441;PMS5003;41313;58.740;50.174;2022-07-21T19:18:58;9.00;9.00;6.25
55441;PMS5003;41313;58.740;50.174;2022-07-21T19:24:00;6.50;6.50;5.00
55441;PMS5003;41313;58.740;50.174;2022-07-21T19:29:01;5.75;5.75;4.50
55441;PMS5003;41313;58.740;50.174;2022-07-21T19:34:03;7.50;7.50;5.50
55441;PMS5003;41313;58.740;50.174;2022-07-21T19:39:04;7.00;7.00;5.00
55441;PMS5003;41313;58.740;50.174;2022-07-21T19:44:06;12.50;12.50;7.75
55441;PMS5003;41313;58.740;50.174;2022-07-21T19:49:08;26.50;25.50;11.00
55441;PMS5003;41313;58.740;50.174;2022-07-21T19:54:09;18.00;17.25;9.75
55441;PMS5003;41313;58.740;50.174;2022-07-21T19:59:10;7.00;7.00;4.00
55441;PMS5003;41313;58.740;50.174;2022-07-21T20:04:15;11.75;11.50;7.25
55441;PMS5003;41313;58.740;50.174;2022-07-21T20:09:17;44.67;40.33;30.00
55441;PMS5003;41313;58.740;50.174;2022-07-21T20:14:18;63.00;50.33;28.67
55441;PMS5003;41313;58.740;50.174;2022-07-21T20:19:19;66.00;49.67;26.00
55441;PMS5003;41313;58.740;50.174;2022-07-21T20:24:21;57.00;46.00;25.33
55441;PMS5003;41313;58.740;50.174;2022-07-21T20:29:22;15.00;15.00;11.00
55441;PMS5003;41313;58.740;50.174;2022-07-21T20:34:24;80.33;62.67;32.33
55441;PMS5003;41313;58.740;50.174;2022-07-21T20:39:25;75.67;59.00;30.00
55441;PMS5003;41313;58.740;50.174;2022-07-21T20:44:27;26.25;26.25;13.25
55441;PMS5003;41313;58.740;50.174;2022-07-21T20:49:31;20.50;20.00;12.00
55441;PMS5003;41313;58.740;50.174;2022-07-21T20:54:32;8.00;8.00;4.25
55441;PMS5003;41313;58.740;50.174;2022-07-21T20:59:34;70.67;56.33;30.00
55441;PMS5003;41313;58.740;50.174;2022-07-21T21:04:35;106.33;89.33;39.00
55441;PMS5003;41313;58.740;50.174;2022-07-21T21:09:37;74.67;56.67;27.67
55441;PMS5003;41313;58.740;50.174;2022-07-21T21:14:38;41.67;37.33;16.67
55441;PMS5003;41313;58.740;50.174;2022-07-21T21:19:40;17.00;17.00;10.00
55441;PMS5003;41313;58.740;50.174;2022-07-21T21:24:41;9.75;8.75;4.25
55441;PMS5003;41313;58.740;50.174;2022-07-21T21:29:43;48.00;40.75;21.00
55441;PMS5003;41313;58.740;50.174;2022-07-21T21:34:44;53.00;44.33;23.00
55441;PMS5003;41313;58.740;50.174;2022-07-21T21:39:46;33.00;32.00;15.25
55441;PMS5003;41313;58.740;50.174;2022-07-21T21:44:47;36.00;34.00;18.67
55441;PMS5003;41313;58.740;50.174;2022-07-21T21:49:49;33.50;30.75;17.00
55441;PMS5003;41313;58.740;50.174;2022-07-21T21:54:50;40.00;36.25;19.25
55441;PMS5003;41313;58.740;50.174;2022-07-21T21:59:52;49.00;40.67;22.33
55441;PMS5003;41313;58.740;50.174;2022-07-21T22:04:53;35.00;30.00;16.25
55441;PMS5003;41313;58.740;50.174;2022-07-21T22:09:55;27.00;27.00;13.50
55441;PMS5003;41313;58.740;50.174;2022-07-21T22:14:56;44.00;37.50;19.75
55441;PMS5003;41313;58.740;50.174;2022-07-21T22:19:58;61.00;50.33;26.33
55441;PMS5003;41313;58.740;50.174;2022-07-21T22:25:00;62.00;50.00;27.67
55441;PMS5003;41313;58.740;50.174;2022-07-21T22:30:07;72.33;56.00;27.33
55441;PMS5003;41313;58.740;50.174;2022-07-21T22:35:10;82.67;67.67;34.67
55441;PMS5003;41313;58.740;50.174;2022-07-21T22:40:11;61.33;49.67;24.00
55441;PMS5003;41313;58.740;50.174;2022-07-21T22:45:13;38.50;33.00;17.25
55441;PMS5003;41313;58.740;50.174;2022-07-21T22:50:14;57.00;45.67;23.00
55441;PMS5003;41313;58.740;50.174;2022-07-21T22:55:16;40.75;37.25;19.25
55441;PMS5003;41313;58.740;50.174;2022-07-21T23:00:19;65.33;51.33;26.33
55441;PMS5003;41313;58.740;50.174;2022-07-21T23:05:20;15.75;15.75;10.00
55441;PMS5003;41313;58.740;50.174;2022-07-21T23:10:23;21.25;20.75;12.50
55441;PMS5003;41313;58.740;50.174;2022-07-21T23:15:26;16.25;16.00;10.75
55441;PMS5003;41313;58.740;50.174;2022-07-21T23:20:29;8.25;8.25;4.00
55441;PMS5003;41313;58.740;50.174;2022-07-21T23:25:30;10.00;9.75;5.75
55441;PMS5003;41313;58.740;50.174;2022-07-21T23:30:32;8.00;8.00;4.50
55441;PMS5003;41313;58.740;50.174;2022-07-21T23:35:33;4.00;4.00;2.00
55441;PMS5003;41313;58.740;50.174;2022-07-21T23:40:35;5.00;5.00;4.25
55441;PMS5003;41313;58.740;50.174;2022-07-21T23:45:37;5.00;5.00;4.00
55441;PMS5003;41313;58.740;50.174;2022-07-21T23:50:38;3.25;3.25;2.75
55441;PMS5003;41313;58.740;50.174;2022-07-21T23:55:40;8.00;8.00;5.50
